Time;durP1;ratioP1;P1;durP2;ratioP2;P2;SDS_P1;SDS_P2;PMS_P1;PMS_P2;Temp;Humidity;BMP_temperature;BMP_pressure;BME280_temperature;BME280_humidity;BME280_pressure;Samples;Min_cycle;Max_cycle;Signal;HPM_P1;HPM_P2
2022/06/14 00:03:12;;;;;;;5.15;2.55;;;14.60;57.60;;;;;;5022404;28;20520;-74
2022/06/14 00:05:38;;;;;;;4.53;2.38;;;14.70;58.50;;;;;;5020637;28;20034;-74
2022/06/14 00:08:04;;;;;;;3.88;2.70;;;14.60;57.90;;;;;;5036770;28;20060;-73
2022/06/14 00:10:29;;;;;;;6.45;3.03;;;14.60;58.00;;;;;;5018927;28;20026;-74
2022/06/14 00:12:55;;;;;;;3.92;2.25;;;14.60;58.10;;;;;;5012055;28;20075;-74
2022/06/14 00:15:20;;;;;;;6.43;2.60;;;14.50;58.20;;;;;;4995684;28;20120;-74
2022/06/14 00:17:46;;;;;;;4.80;2.58;;;14.50;58.30;;;;;;5020727;28;20183;-73
2022/06/14 00:20:12;;;;;;;3.25;2.30;;;14.40;58.40;;;;;;4990907;28;20445;-73
2022/06/14 00:22:37;;;;;;;3.85;2.70;;;14.40;58.40;;;;;;4994713;28;20470;-75
2022/06/14 00:25:03;;;;;;;8.35;3.08;;;14.40;58.60;;;;;;5006004;28;20116;-73
2022/06/14 00:27:29;;;;;;;5.10;2.45;;;14.30;58.60;;;;;;5020275;28;20040;-74
2022/06/14 00:29:54;;;;;;;2.67;2.38;;;14.30;58.90;;;;;;5021715;28;20038;-74
2022/06/14 00:32:20;;;;;;;5.07;2.97;;;14.20;58.90;;;;;;4979556;28;20038;-74
2022/06/14 00:34:46;;;;;;;3.83;2.78;;;14.10;58.90;;;;;;4998478;28;20029;-74
2022/06/14 00:37:17;;;;;;;3.00;2.17;;;14.10;59.00;;;;;;5019793;28;20136;-74
2022/06/14 00:39:43;;;;;;;3.65;2.67;;;14.00;59.40;;;;;;5008559;28;20096;-74
2022/06/14 00:42:19;;;;;;;3.70;2.50;;;14.00;59.30;;;;;;5005672;28;20037;-74
2022/06/14 00:45:04;;;;;;;3.20;2.50;;;13.90;59.60;;;;;;5008414;28;20040;-74
2022/06/14 00:47:34;;;;;;;4.75;2.63;;;13.90;59.90;;;;;;5040278;28;20132;-75
2022/06/14 00:50:00;;;;;;;7.32;2.30;;;13.80;59.60;;;;;;5036997;28;20033;-74
2022/06/14 00:52:28;;;;;;;3.42;2.47;;;13.80;59.70;;;;;;5014882;28;20041;-74
2022/06/14 00:54:56;;;;;;;3.97;2.58;;;13.80;59.70;;;;;;5019993;28;20040;-74
2022/06/14 00:57:24;;;;;;;7.45;2.70;;;13.80;60.00;;;;;;4990887;28;20071;-74
2022/06/14 00:59:56;;;;;;;4.88;2.70;;;13.80;60.00;;;;;;5003235;28;20045;-73
2022/06/14 01:02:27;;;;;;;5.43;2.30;;;13.70;60.30;;;;;;4997303;28;20042;-74
2022/06/14 01:04:52;;;;;;;5.33;2.50;;;13.70;60.30;;;;;;5001747;28;20041;-73
2022/06/14 01:07:21;;;;;;;3.10;2.20;;;13.60;60.40;;;;;;5021240;28;20034;-73
2022/06/14 01:09:48;;;;;;;3.10;2.58;;;13.60;60.50;;;;;;5007864;28;20066;-75
2022/06/14 01:12:16;;;;;;;4.88;2.60;;;13.60;60.70;;;;;;5010042;28;20033;-73
2022/06/14 01:14:47;;;;;;;3.70;2.42;;;13.50;60.70;;;;;;5006166;28;20037;-73
2022/06/14 01:17:13;;;;;;;4.90;2.60;;;13.50;60.80;;;;;;4995841;28;20041;-73
2022/06/14 01:19:39;;;;;;;6.13;2.63;;;13.50;60.90;;;;;;5010301;28;20118;-74
2022/06/14 01:22:04;;;;;;;5.40;2.90;;;13.40;60.90;;;;;;4989211;28;20744;-73
2022/06/14 01:24:30;;;;;;;4.78;2.72;;;13.40;61.10;;;;;;5009956;28;20041;-74
2022/06/14 01:26:56;;;;;;;4.65;3.00;;;13.40;61.20;;;;;;4997022;28;20040;-74
2022/06/14 01:29:21;;;;;;;5.32;2.75;;;13.30;61.30;;;;;;4999150;28;20281;-74
2022/06/14 01:31:47;;;;;;;4.82;2.40;;;13.30;61.40;;;;;;5002752;28;20046;-73
2022/06/14 01:34:13;;;;;;;4.35;2.42;;;13.20;61.40;;;;;;5006426;28;20048;-73
2022/06/14 01:36:39;;;;;;;3.95;2.80;;;13.20;61.50;;;;;;4970002;28;20042;-73
2022/06/14 01:39:08;;;;;;;5.43;2.85;;;13.20;61.60;;;;;;4999491;28;20048;-74
2022/06/14 01:41:58;;;;;;;4.15;2.40;;;13.20;61.70;;;;;;5002331;28;20159;-73
2022/06/14 01:44:32;;;;;;;5.07;2.88;;;13.10;61.90;;;;;;5021080;28;20045;-74
2022/06/14 01:47:34;;;;;;;5.88;2.55;;;13.10;62.00;;;;;;5037812;28;20065;-74
2022/06/14 01:53:19;;;;;;;5.00;2.63;;;13.10;62.20;;;;;;5010806;28;20053;-74
2022/06/14 01:56:06;;;;;;;4.03;2.75;;;13.10;62.10;;;;;;5004807;28;20436;-73
2022/06/14 01:58:46;;;;;;;4.45;2.38;;;13.00;62.10;;;;;;5015536;28;20060;-74
2022/06/14 02:01:17;;;;;;;4.10;2.63;;;13.00;62.20;;;;;;5011720;28;20545;-74
2022/06/14 02:06:40;;;;;;;6.70;3.05;;;12.90;62.10;;;;;;5023708;28;20869;-73
2022/06/14 02:09:43;;;;;;;5.22;2.67;;;12.80;62.40;;;;;;5026517;28;20053;-73
2022/06/14 02:12:10;;;;;;;6.22;3.03;;;12.80;62.60;;;;;;4997979;28;20137;-73
2022/06/14 02:15:15;;;;;;;4.07;2.60;;;12.80;62.50;;;;;;4984076;28;20025;-74
2022/06/14 02:17:46;;;;;;;3.92;2.72;;;12.80;63.00;;;;;;5006218;28;20034;-74
2022/06/14 02:20:15;;;;;;;5.47;2.67;;;12.80;63.60;;;;;;5019767;28;20041;-73
2022/06/14 02:22:51;;;;;;;3.92;2.45;;;12.80;62.80;;;;;;4983232;28;20032;-73
2022/06/14 02:25:21;;;;;;;4.72;2.92;;;12.70;63.00;;;;;;5015693;28;20070;-74
2022/06/14 02:27:57;;;;;;;4.53;2.78;;;12.70;63.00;;;;;;5000531;28;20518;-74
2022/06/14 02:30:25;;;;;;;4.78;2.50;;;12.70;63.20;;;;;;4981825;28;20084;-73
2022/06/14 02:33:13;;;;;;;3.45;2.42;;;12.60;63.10;;;;;;4997343;28;20033;-73
2022/06/14 02:35:49;;;;;;;4.72;2.47;;;12.60;63.40;;;;;;5011272;28;20041;-73
2022/06/14 02:38:41;;;;;;;3.50;2.42;;;12.50;63.30;;;;;;5027748;28;20124;-73
2022/06/14 02:41:13;;;;;;;4.10;2.50;;;12.40;63.60;;;;;;4983540;28;20029;-73
2022/06/14 02:43:44;;;;;;;4.78;2.50;;;12.40;63.40;;;;;;5011638;28;20025;-74
2022/06/14 02:46:14;;;;;;;4.97;2.47;;;12.40;63.40;;;;;;5020855;28;20363;-75
2022/06/14 02:48:49;;;;;;;7.63;2.42;;;12.30;63.60;;;;;;5014692;28;20033;-74
2022/06/14 02:51:23;;;;;;;4.50;2.53;;;12.20;63.80;;;;;;5007282;28;20026;-74
2022/06/14 02:53:53;;;;;;;3.20;2.75;;;12.20;63.90;;;;;;4990371;28;20133;-74
2022/06/14 02:56:31;;;;;;;3.90;2.63;;;12.20;64.10;;;;;;5011046;28;20060;-74
2022/06/14 02:59:10;;;;;;;4.15;2.60;;;12.20;64.40;;;;;;5006618;28;20029;-74
2022/06/14 03:01:47;;;;;;;4.88;2.92;;;12.20;64.40;;;;;;5007824;28;20033;-75
2022/06/14 03:04:33;;;;;;;5.13;2.50;;;12.10;64.50;;;;;;4990679;28;20068;-75
2022/06/14 03:07:20;;;;;;;5.68;2.40;;;12.00;64.30;;;;;;5020852;28;20490;-74
2022/06/14 03:09:46;;;;;;;4.22;2.67;;;11.90;64.80;;;;;;5026813;28;20030;-73
2022/06/14 03:12:17;;;;;;;3.85;2.28;;;11.90;64.50;;;;;;5011781;28;20229;-73
2022/06/14 03:14:55;;;;;;;3.60;2.53;;;11.90;64.90;;;;;;5024270;28;20040;-74
2022/06/14 03:17:39;;;;;;;5.43;2.70;;;11.90;65.10;;;;;;4998779;28;20044;-73
2022/06/14 03:20:15;;;;;;;5.93;2.50;;;11.80;64.80;;;;;;5030362;28;20041;-74
2022/06/14 03:22:50;;;;;;;4.15;2.45;;;11.80;64.90;;;;;;5015416;28;20093;-74
2022/06/14 03:25:41;;;;;;;6.32;3.60;;;11.80;65.30;;;;;;5026111;28;20077;-74
2022/06/14 03:28:16;;;;;;;4.10;2.35;;;11.80;65.60;;;;;;5010394;28;20082;-74
2022/06/14 03:30:45;;;;;;;4.82;2.15;;;11.80;65.40;;;;;;4974394;28;20029;-74
2022/06/14 03:33:23;;;;;;;4.75;2.53;;;11.70;65.30;;;;;;4994396;28;20065;-75
2022/06/14 03:35:50;;;;;;;5.13;2.67;;;11.80;65.40;;;;;;5024002;28;20037;-74
2022/06/14 03:38:22;;;;;;;5.65;2.78;;;11.70;65.30;;;;;;5018108;28;20026;-74
2022/06/14 03:40:49;;;;;;;3.78;2.88;;;11.70;65.50;;;;;;5006210;28;20029;-73
2022/06/14 03:43:15;;;;;;;4.28;2.65;;;11.80;65.60;;;;;;5011829;28;20037;-74
2022/06/14 03:45:54;;;;;;;3.25;2.67;;;11.70;65.60;;;;;;5021932;28;20038;-74
2022/06/14 03:48:20;;;;;;;5.93;2.70;;;11.70;65.80;;;;;;5019275;28;20401;-74
2022/06/14 03:51:05;;;;;;;5.53;2.50;;;11.70;65.70;;;;;;4979641;28;20038;-75
2022/06/14 03:54:01;;;;;;;2.42;2.20;;;11.60;66.20;;;;;;4982207;28;20122;-74
2022/06/14 03:56:43;;;;;;;3.63;2.67;;;11.60;66.20;;;;;;5019880;28;22303;-73
2022/06/14 03:59:33;;;;;;;5.10;2.70;;;11.60;66.20;;;;;;4970156;28;20052;-76
2022/06/14 04:02:05;;;;;;;4.45;2.38;;;11.60;66.40;;;;;;5024753;28;20091;-74
2022/06/14 04:04:50;;;;;;;5.55;2.40;;;11.60;66.00;;;;;;4997495;28;20041;-72
2022/06/14 04:07:41;;;;;;;2.85;2.10;;;11.60;66.40;;;;;;5015997;28;20041;-73
2022/06/14 04:10:32;;;;;;;4.15;2.65;;;11.60;66.60;;;;;;5030181;28;20121;-72
2022/06/14 04:13:08;;;;;;;4.00;2.42;;;11.60;66.50;;;;;;4988628;28;20044;-73
2022/06/14 04:15:37;;;;;;;4.40;2.20;;;11.70;66.40;;;;;;5016382;28;20037;-72
2022/06/14 04:18:34;;;;;;;5.70;2.90;;;11.60;66.50;;;;;;5000769;28;20057;-71
2022/06/14 04:20:59;;;;;;;2.30;2.10;;;11.60;66.60;;;;;;5003858;28;20033;-72
2022/06/14 04:24:06;;;;;;;4.47;2.67;;;11.60;66.50;;;;;;5002242;28;20029;-71
2022/06/14 04:26:43;;;;;;;2.50;2.30;;;11.60;67.00;;;;;;4997563;28;20041;-72
2022/06/14 04:29:33;;;;;;;4.80;2.10;;;11.60;66.70;;;;;;4995571;28;20038;-72
2022/06/14 04:32:17;;;;;;;3.58;2.53;;;11.70;67.30;;;;;;5017591;28;20059;-72
2022/06/14 04:34:48;;;;;;;3.90;2.03;;;11.70;67.20;;;;;;5008016;28;20663;-72
2022/06/14 04:37:29;;;;;;;2.53;2.10;;;11.70;66.90;;;;;;5003693;28;20059;-73
2022/06/14 04:40:01;;;;;;;5.55;2.30;;;11.70;66.90;;;;;;5004093;28;20045;-73
2022/06/14 04:42:44;;;;;;;3.00;2.10;;;11.70;67.00;;;;;;5017056;28;20076;-73
2022/06/14 04:45:13;;;;;;;4.93;2.33;;;11.70;67.40;;;;;;5003413;28;20545;-75
2022/06/14 04:47:55;;;;;;;3.67;2.00;;;11.80;67.20;;;;;;5019247;28;20555;-73
2022/06/14 04:50:22;;;;;;;3.20;2.50;;;11.80;68.00;;;;;;5018472;28;20044;-74
2022/06/14 04:52:57;;;;;;;4.30;2.58;;;11.80;67.10;;;;;;5016019;28;20191;-74
2022/06/14 04:55:35;;;;;;;6.43;2.97;;;11.90;67.40;;;;;;5008256;28;20068;-73
2022/06/14 04:58:09;;;;;;;6.82;3.28;;;11.90;67.50;;;;;;4996533;28;20088;-71
2022/06/14 05:00:41;;;;;;;3.95;3.22;;;11.90;67.80;;;;;;5015852;28;20044;-73
2022/06/14 05:03:18;;;;;;;4.82;3.60;;;11.90;67.80;;;;;;5003012;28;20094;-72
2022/06/14 05:05:46;;;;;;;7.22;3.78;;;12.00;67.80;;;;;;4989285;28;20041;-72
2022/06/14 05:08:42;;;;;;;6.57;3.83;;;12.00;67.80;;;;;;5001806;28;20601;-72
2022/06/14 05:11:10;;;;;;;6.07;3.90;;;12.00;68.40;;;;;;5020339;28;20041;-72
2022/06/14 05:13:44;;;;;;;5.43;3.90;;;12.00;67.90;;;;;;4995922;28;20529;-74
2022/06/14 05:16:24;;;;;;;6.50;3.88;;;12.10;68.40;;;;;;5019374;28;20049;-73
2022/06/14 05:19:10;;;;;;;8.73;4.03;;;12.10;68.70;;;;;;5008177;28;20044;-73
2022/06/14 05:21:51;;;;;;;4.30;3.40;;;12.10;68.40;;;;;;5032702;28;20056;-73
2022/06/14 05:24:17;;;;;;;5.70;2.90;;;12.20;69.00;;;;;;5007546;28;20095;-73
2022/06/14 05:27:18;;;;;;;4.18;3.35;;;12.20;68.20;;;;;;5027403;28;20041;-73
2022/06/14 05:29:52;;;;;;;5.32;3.22;;;12.30;68.30;;;;;;4952648;28;20538;-73
2022/06/14 05:32:25;;;;;;;4.97;3.25;;;12.40;68.00;;;;;;5010242;28;20032;-73
2022/06/14 05:35:29;;;;;;;7.65;3.55;;;12.50;68.40;;;;;;5011829;28;20042;-74
2022/06/14 05:38:04;;;;;;;5.07;2.92;;;12.50;68.80;;;;;;5020888;28;20059;-74
2022/06/14 05:40:53;;;;;;;7.55;3.13;;;12.60;68.20;;;;;;5040824;28;20029;-74
2022/06/14 05:43:24;;;;;;;4.00;2.85;;;12.70;68.50;;;;;;5032360;28;20040;-73
2022/06/14 05:45:51;;;;;;;9.20;2.75;;;12.70;68.00;;;;;;5017981;28;20040;-73
2022/06/14 05:48:21;;;;;;;8.32;2.88;;;12.80;68.10;;;;;;5019556;28;20033;-73
2022/06/14 05:50:49;;;;;;;10.07;2.90;;;12.90;68.00;;;;;;5018396;28;20197;-73
2022/06/14 05:53:24;;;;;;;3.83;2.78;;;12.90;67.80;;;;;;4988836;28;20045;-73
2022/06/14 05:55:51;;;;;;;9.50;3.05;;;13.00;67.80;;;;;;4991386;28;20056;-73
2022/06/14 05:58:21;;;;;;;9.60;2.67;;;13.10;67.70;;;;;;5017286;28;20049;-72
2022/06/14 06:01:08;;;;;;;6.40;2.85;;;13.10;67.40;;;;;;5019671;28;20486;-73
2022/06/14 06:03:49;;;;;;;5.05;2.85;;;13.30;67.70;;;;;;5006647;28;20038;-73
2022/06/14 06:06:19;;;;;;;5.53;2.97;;;13.30;67.50;;;;;;5014958;28;20701;-73
2022/06/14 06:08:51;;;;;;;11.27;4.18;;;13.40;66.90;;;;;;4990365;28;20128;-73
2022/06/14 06:11:51;;;;;;;14.85;4.05;;;13.50;66.80;;;;;;5009231;28;20143;-73
2022/06/14 06:14:20;;;;;;;13.32;4.43;;;13.60;67.10;;;;;;4999482;28;20033;-73
2022/06/14 06:19:43;;;;;;;11.80;4.05;;;13.80;66.40;;;;;;5002009;28;20533;-74
2022/06/14 06:22:15;;;;;;;10.52;3.50;;;14.00;66.80;;;;;;5002908;28;20120;-73
2022/06/14 06:24:55;;;;;;;12.05;3.35;;;14.10;66.30;;;;;;4976838;28;20034;-73
2022/06/14 06:27:39;;;;;;;13.18;3.40;;;14.20;66.60;;;;;;5007614;28;20053;-73
2022/06/14 06:30:13;;;;;;;8.45;3.15;;;14.30;66.40;;;;;;5007464;28;20045;-73
2022/06/14 06:32:38;;;;;;;11.52;3.50;;;14.40;65.80;;;;;;5003303;28;20042;-73
2022/06/14 06:35:04;;;;;;;12.23;2.90;;;14.60;65.50;;;;;;5002228;28;20041;-72
2022/06/14 06:37:37;;;;;;;9.27;2.80;;;14.70;65.40;;;;;;5017906;28;20104;-73
2022/06/14 06:40:09;;;;;;;19.90;3.40;;;14.80;65.30;;;;;;5005406;28;20068;-73
2022/06/14 06:43:09;;;;;;;8.82;3.13;;;15.00;65.10;;;;;;5021143;28;20056;-73
2022/06/14 06:45:41;;;;;;;6.13;2.42;;;15.20;64.80;;;;;;4977662;28;20037;-73
2022/06/14 06:48:24;;;;;;;7.80;3.28;;;15.40;64.40;;;;;;5023720;28;20029;-73
2022/06/14 06:50:55;;;;;;;5.93;2.80;;;15.50;64.10;;;;;;5002612;28;20037;-73
2022/06/14 06:53:22;;;;;;;11.65;3.08;;;15.60;63.70;;;;;;5006391;28;20029;-73
2022/06/14 06:56:05;;;;;;;6.75;2.80;;;15.80;63.50;;;;;;5026147;28;20038;-74
2022/06/14 06:58:43;;;;;;;3.95;2.38;;;16.00;63.30;;;;;;5005082;28;20060;-74
2022/06/14 07:01:24;;;;;;;5.00;2.30;;;16.10;63.00;;;;;;4996341;28;20032;-74
2022/06/14 07:04:20;;;;;;;4.35;2.10;;;16.30;62.80;;;;;;5041088;28;20026;-74
2022/06/14 07:06:56;;;;;;;7.43;2.63;;;16.50;62.40;;;;;;5029240;28;20490;-73
2022/06/14 07:09:27;;;;;;;4.38;2.30;;;16.70;62.00;;;;;;5024555;28;20072;-74
2022/06/14 07:11:56;;;;;;;4.05;2.08;;;16.80;61.70;;;;;;5043514;28;20038;-74
2022/06/14 07:14:26;;;;;;;4.57;2.05;;;17.00;61.40;;;;;;5028299;28;20105;-74
2022/06/14 07:17:02;;;;;;;5.78;2.55;;;17.20;61.10;;;;;;4998746;28;20033;-74
2022/06/14 07:19:44;;;;;;;10.52;2.30;;;17.40;60.60;;;;;;5026419;28;20033;-73
2022/06/14 07:22:13;;;;;;;7.43;2.33;;;17.60;60.20;;;;;;5005271;28;20838;-73
2022/06/14 07:25:05;;;;;;;7.35;2.10;;;17.80;59.90;;;;;;4992481;28;20034;-74
2022/06/14 07:27:37;;;;;;;4.20;2.25;;;17.90;59.50;;;;;;5015910;28;20038;-74
2022/06/14 07:30:05;;;;;;;6.32;2.60;;;18.10;59.40;;;;;;5000585;28;20057;-74
2022/06/14 07:32:33;;;;;;;4.30;2.03;;;18.30;59.00;;;;;;5040943;28;20117;-73
2022/06/14 07:34:59;;;;;;;7.40;2.20;;;18.50;58.60;;;;;;5026288;28;20026;-74
2022/06/14 07:37:42;;;;;;;2.17;1.90;;;18.70;58.40;;;;;;5019129;28;20101;-73
2022/06/14 07:40:21;;;;;;;4.00;1.98;;;18.90;57.40;;;;;;5009981;28;20044;-74
2022/06/14 07:42:56;;;;;;;4.43;1.85;;;19.10;57.20;;;;;;4994048;28;20421;-74
2022/06/14 07:45:42;;;;;;;3.78;2.10;;;19.30;57.00;;;;;;4986026;28;20485;-74
2022/06/14 07:48:35;;;;;;;6.60;1.77;;;19.50;56.40;;;;;;4993953;28;20255;-74
2022/06/14 07:51:12;;;;;;;2.97;1.65;;;19.70;56.00;;;;;;5019332;28;20069;-74
2022/06/14 07:54:09;;;;;;;3.72;1.48;;;20.00;55.90;;;;;;5023691;28;20037;-74
2022/06/14 07:56:40;;;;;;;2.60;1.60;;;20.20;55.30;;;;;;4975594;28;20128;-75
2022/06/14 07:59:16;;;;;;;6.43;1.45;;;20.40;55.20;;;;;;5007588;28;20034;-75
2022/06/14 08:01:51;;;;;;;7.30;2.10;;;20.60;55.00;;;;;;5026817;28;20075;-73
2022/06/14 08:04:21;;;;;;;5.93;1.67;;;20.80;54.60;;;;;;5010687;28;20043;-74
2022/06/14 08:07:12;;;;;;;3.05;1.60;;;21.00;54.20;;;;;;4985082;28;20030;-74
2022/06/14 08:09:56;;;;;;;3.72;1.70;;;21.20;53.20;;;;;;5013056;28;20025;-74
2022/06/14 08:12:37;;;;;;;3.17;1.45;;;21.40;52.80;;;;;;5021674;28;20041;-73
2022/06/14 08:15:14;;;;;;;7.38;1.58;;;21.60;52.20;;;;;;5021269;28;20109;-75
2022/06/14 08:17:59;;;;;;;3.42;1.40;;;21.70;52.30;;;;;;5021520;28;20095;-74
2022/06/14 08:20:44;;;;;;;3.28;1.50;;;22.00;51.50;;;;;;5029111;28;20033;-74
2022/06/14 08:23:29;;;;;;;3.00;1.50;;;22.10;51.60;;;;;;5008324;28;20053;-74
2022/06/14 08:26:12;;;;;;;5.00;1.48;;;22.30;51.00;;;;;;5009721;28;20490;-75
2022/06/14 08:28:51;;;;;;;2.13;1.40;;;22.40;50.70;;;;;;4971854;28;20038;-75
2022/06/14 08:31:22;;;;;;;4.10;1.30;;;22.60;50.20;;;;;;4990235;28;20187;-75
2022/06/14 08:33:51;;;;;;;;;;;22.90;50.00;;;;;;5009310;28;20903;-74
2022/06/14 08:36:20;;;;;;;2.85;1.20;;;23.10;50.60;;;;;;5012895;28;19928;-74
2022/06/14 08:38:53;;;;;;;4.93;1.52;;;23.30;49.50;;;;;;5009996;28;20036;-74
2022/06/14 08:41:44;;;;;;;4.72;1.50;;;23.60;49.00;;;;;;5008710;28;20156;-75
2022/06/14 08:44:21;;;;;;;4.50;1.75;;;23.80;47.90;;;;;;5033392;28;20033;-76
2022/06/14 08:47:34;;;;;;;3.10;1.75;;;24.00;47.70;;;;;;5016001;28;20033;-75
2022/06/14 08:50:21;;;;;;;7.55;1.77;;;24.30;47.30;;;;;;5003521;28;20036;-76
2022/06/14 08:53:16;;;;;;;2.80;1.13;;;24.60;46.60;;;;;;5043207;28;20100;-75
2022/06/14 08:55:54;;;;;;;2.58;0.88;;;24.90;46.00;;;;;;5015767;28;20024;-75
2022/06/14 08:58:43;;;;;;;1.60;0.80;;;25.20;46.20;;;;;;5022254;28;20034;-75
2022/06/14 09:01:16;;;;;;;3.65;1.20;;;25.40;44.40;;;;;;5051950;28;20026;-75
2022/06/14 09:03:59;;;;;;;1.30;0.75;;;25.70;44.20;;;;;;5007826;28;20025;-76
2022/06/14 09:06:30;;;;;;;1.15;0.88;;;25.80;42.30;;;;;;5014473;28;20041;-76
2022/06/14 09:09:26;;;;;;;2.97;1.08;;;26.10;42.40;;;;;;5043564;28;20511;-75
2022/06/14 09:12:07;;;;;;;4.78;0.82;;;26.30;41.10;;;;;;5038709;28;20045;-75
2022/06/14 09:14:51;;;;;;;1.23;0.98;;;26.50;40.60;;;;;;5018948;28;20025;-75
2022/06/14 09:17:35;;;;;;;1.92;0.90;;;26.70;40.00;;;;;;5030194;28;20053;-75
2022/06/14 09:20:16;;;;;;;3.80;0.90;;;26.90;39.80;;;;;;5033189;28;20072;-75
2022/06/14 09:23:06;;;;;;;1.42;0.75;;;27.10;39.70;;;;;;5032224;28;20041;-75
2022/06/14 09:25:44;;;;;;;2.65;0.88;;;27.30;39.50;;;;;;5029738;28;20037;-76
2022/06/14 09:28:14;;;;;;;3.80;1.25;;;27.40;39.30;;;;;;5023365;28;20124;-75
2022/06/14 09:31:03;;;;;;;1.73;1.10;;;27.60;39.20;;;;;;5025218;28;20033;-76
2022/06/14 09:33:52;;;;;;;1.13;0.85;;;27.70;38.10;;;;;;5021526;28;20100;-76
2022/06/14 09:36:39;;;;;;;1.20;1.05;;;27.90;37.60;;;;;;5045098;28;20037;-76
2022/06/14 09:39:35;;;;;;;2.45;0.73;;;28.00;37.60;;;;;;5033305;28;20045;-75
2022/06/14 09:42:16;;;;;;;2.58;0.90;;;28.10;37.40;;;;;;5028970;28;20045;-75
2022/06/14 09:45:07;;;;;;;2.33;0.95;;;28.30;36.90;;;;;;5036164;28;20282;-77
2022/06/14 09:48:19;;;;;;;1.55;0.95;;;28.40;37.40;;;;;;5016270;28;20043;-76
2022/06/14 09:51:00;;;;;;;;;;;28.60;36.50;;;;;;4998496;28;20033;-76
2022/06/14 09:53:49;;;;;;;3.25;1.27;;;28.70;37.60;;;;;;5005773;28;19979;-76
2022/06/14 09:56:46;;;;;;;2.90;1.02;;;28.80;36.50;;;;;;5034761;28;20061;-76
2022/06/14 09:59:22;;;;;;;3.97;1.20;;;29.00;36.30;;;;;;5049384;28;20568;-76
2022/06/14 10:02:16;;;;;;;3.20;1.00;;;29.20;36.70;;;;;;5000523;28;20034;-76
2022/06/14 10:04:53;;;;;;;2.30;0.95;;;29.40;35.60;;;;;;5021760;28;20136;-76
2022/06/14 10:07:56;;;;;;;4.63;0.93;;;29.60;36.30;;;;;;5044341;28;20119;-76
2022/06/14 10:10:43;;;;;;;2.03;1.00;;;29.70;34.80;;;;;;5022686;28;20437;-77
2022/06/14 10:13:27;;;;;;;2.72;0.95;;;29.90;35.50;;;;;;5039753;28;20041;-75
2022/06/14 10:15:59;;;;;;;5.25;1.00;;;30.00;34.80;;;;;;5022149;28;20126;-75
2022/06/14 10:18:40;;;;;;;1.52;1.00;;;30.20;34.60;;;;;;5050026;28;20030;-76
2022/06/14 10:21:20;;;;;;;1.40;0.77;;;30.20;34.50;;;;;;5028646;28;20063;-76
2022/06/14 10:24:02;;;;;;;1.92;1.10;;;30.20;33.50;;;;;;4996152;28;20537;-77
2022/06/14 10:29:46;;;;;;;4.50;0.90;;;30.60;33.70;;;;;;4998365;28;20035;-76
2022/06/14 10:32:44;;;;;;;2.40;1.00;;;30.80;32.90;;;;;;5032122;28;20065;-76
2022/06/14 10:35:33;;;;;;;1.05;0.80;;;31.00;33.60;;;;;;4982691;28;20053;-76
2022/06/14 10:38:20;;;;;;;1.65;0.90;;;31.10;31.90;;;;;;5019531;28;20099;-76
2022/06/14 10:41:03;;;;;;;3.47;1.05;;;31.20;32.60;;;;;;5042619;28;20043;-77
2022/06/14 10:43:55;;;;;;;2.17;0.90;;;31.40;31.30;;;;;;5017044;28;20106;-76
2022/06/14 10:46:28;;;;;;;1.50;0.88;;;31.50;31.30;;;;;;5046506;28;20030;-76
2022/06/14 10:49:16;;;;;;;3.15;0.90;;;31.60;31.80;;;;;;5047443;28;20116;-76
2022/06/14 10:52:16;;;;;;;1.85;0.93;;;31.70;31.30;;;;;;5017989;28;20032;-76
2022/06/14 10:55:04;;;;;;;3.13;1.20;;;31.90;30.80;;;;;;5022633;28;20034;-76
2022/06/14 10:58:07;;;;;;;3.05;0.90;;;32.00;30.30;;;;;;5035995;28;20049;-76
2022/06/14 11:00:51;;;;;;;4.80;1.00;;;32.20;30.40;;;;;;5034514;28;20673;-76
2022/06/14 11:03:30;;;;;;;2.00;0.77;;;32.40;30.10;;;;;;5034709;28;20037;-76
2022/06/14 11:06:20;;;;;;;2.80;0.93;;;32.60;29.70;;;;;;5017939;28;20034;-76
2022/06/14 11:09:05;;;;;;;4.37;1.67;;;32.70;29.30;;;;;;5009368;28;20026;-76
2022/06/14 11:11:49;;;;;;;0.82;0.80;;;32.90;30.10;;;;;;4988324;28;20498;-77
2022/06/14 11:14:35;;;;;;;2.42;0.90;;;33.10;30.00;;;;;;5030352;28;20038;-76
2022/06/14 11:17:25;;;;;;;2.53;0.90;;;33.20;29.60;;;;;;4981832;28;20144;-76
2022/06/14 11:20:06;;;;;;;;;;;33.10;28.90;;;;;;5004901;28;20033;-77
2022/06/14 11:22:53;;;;;;;1.80;0.82;;;33.20;29.70;;;;;;4978004;28;19920;-77
2022/06/14 11:25:36;;;;;;;1.90;1.27;;;33.30;29.00;;;;;;5014902;28;20494;-76
2022/06/14 11:28:17;;;;;;;0.95;0.73;;;33.40;29.60;;;;;;5017701;28;20041;-76
2022/06/14 11:30:57;;;;;;;2.20;0.98;;;33.60;29.30;;;;;;4996697;28;20061;-76
2022/06/14 11:34:00;;;;;;;3.45;1.38;;;33.70;28.80;;;;;;4985299;28;20045;-77
2022/06/14 11:36:57;;;;;;;1.02;0.80;;;33.80;28.00;;;;;;5029441;28;20038;-76
2022/06/14 11:39:53;;;;;;;3.28;0.80;;;33.90;27.90;;;;;;5025031;28;20034;-76
2022/06/14 11:42:24;;;;;;;1.65;0.88;;;34.00;27.80;;;;;;4997169;28;20549;-76
2022/06/14 11:45:19;;;;;;;4.40;0.82;;;34.10;28.10;;;;;;5026417;28;20053;-77
2022/06/14 11:48:10;;;;;;;1.27;0.90;;;34.10;27.80;;;;;;4983879;28;20450;-76
2022/06/14 11:50:53;;;;;;;2.33;0.95;;;34.20;28.10;;;;;;4988187;28;20044;-76
2022/06/14 11:53:31;;;;;;;3.35;1.20;;;34.40;27.30;;;;;;5011009;28;20045;-77
2022/06/14 11:56:07;;;;;;;1.02;0.70;;;34.50;27.90;;;;;;5012360;28;20034;-76
2022/06/14 11:58:57;;;;;;;9.45;1.33;;;34.60;27.80;;;;;;4992514;28;20029;-76
2022/06/14 12:01:46;;;;;;;3.97;0.95;;;34.70;27.50;;;;;;4998546;28;20198;-76
2022/06/14 12:04:26;;;;;;;5.68;0.93;;;34.80;27.30;;;;;;5013965;28;20038;-77
2022/06/14 12:06:58;;;;;;;4.37;1.17;;;34.90;27.10;;;;;;5021686;28;20029;-76
2022/06/14 12:09:41;;;;;;;3.17;1.00;;;34.90;26.90;;;;;;5034000;28;20029;-76
2022/06/14 12:12:38;;;;;;;1.30;0.77;;;34.90;26.40;;;;;;5038815;28;20044;-75
2022/06/14 12:15:06;;;;;;;1.92;0.95;;;35.00;26.40;;;;;;5024608;28;20032;-75
2022/06/14 12:17:45;;;;;;;1.52;0.80;;;35.10;26.90;;;;;;5047522;28;20418;-76
2022/06/14 12:20:20;;;;;;;2.92;0.90;;;35.20;26.10;;;;;;4999628;28;20124;-76
2022/06/14 12:23:06;;;;;;;1.30;0.63;;;35.30;26.60;;;;;;5003700;28;20025;-74
2022/06/14 12:28:51;;;;;;;5.70;1.35;;;35.20;25.80;;;;;;5033543;28;20099;-77
2022/06/14 12:31:27;;;;;;;3.30;0.95;;;35.30;26.00;;;;;;5045468;28;20038;-76
2022/06/14 12:33:56;;;;;;;2.28;1.10;;;35.40;26.30;;;;;;5020069;28;20033;-76
2022/06/14 12:36:33;;;;;;;4.97;0.93;;;35.50;26.20;;;;;;5015292;28;20033;-75
2022/06/14 12:39:01;;;;;;;2.30;0.82;;;35.60;26.10;;;;;;4991714;28;20174;-75
2022/06/14 12:41:33;;;;;;;2.50;0.80;;;35.70;26.00;;;;;;5027002;28;20069;-75
2022/06/14 12:44:05;;;;;;;2.25;0.70;;;35.70;25.70;;;;;;5013275;28;20697;-75
2022/06/14 12:46:36;;;;;;;1.95;0.90;;;35.80;25.40;;;;;;5021770;28;20038;-75
2022/06/14 12:49:21;;;;;;;5.07;0.90;;;35.80;25.30;;;;;;5016440;28;20049;-75
2022/06/14 12:51:55;;;;;;;2.17;1.00;;;35.90;24.30;;;;;;5027893;28;20036;-75
2022/06/14 12:54:39;;;;;;;1.50;0.80;;;35.90;24.90;;;;;;5011703;28;20105;-75
2022/06/14 12:57:40;;;;;;;2.17;0.73;;;36.00;24.80;;;;;;5027572;28;20436;-75
2022/06/14 13:00:32;;;;;;;4.30;0.98;;;36.10;24.70;;;;;;5002032;28;20059;-76
2022/06/14 13:03:24;;;;;;;1.92;0.70;;;36.10;24.90;;;;;;5042295;28;20033;-75
2022/06/14 13:05:51;;;;;;;7.85;1.00;;;36.10;25.00;;;;;;5028523;28;20612;-76
2022/06/14 13:08:44;;;;;;;2.00;0.80;;;36.30;25.10;;;;;;5022748;28;20067;-76
2022/06/14 13:11:13;;;;;;;0.77;0.70;;;36.40;24.50;;;;;;5025278;28;20047;-75
2022/06/14 13:13:50;;;;;;;1.23;0.90;;;36.40;24.80;;;;;;5027301;28;20033;-76
2022/06/14 13:16:19;;;;;;;1.88;0.93;;;36.40;24.50;;;;;;5032760;28;21194;-76
2022/06/14 13:19:03;;;;;;;1.83;0.80;;;36.40;24.50;;;;;;5033187;28;20145;-76
2022/06/14 13:22:27;;;;;;;1.55;0.82;;;36.40;24.00;;;;;;5032478;28;20115;-73
2022/06/14 13:25:18;;;;;;;1.38;0.70;;;36.40;23.90;;;;;;5000493;28;20052;-74
2022/06/14 13:28:00;;;;;;;;;;;36.50;24.30;;;;;;5020262;28;20041;-75
2022/06/14 13:30:32;;;;;;;2.20;0.80;;;36.60;24.70;;;;;;5025621;28;19936;-75
2022/06/14 13:33:23;;;;;;;1.67;0.80;;;36.60;24.80;;;;;;5029630;28;20029;-75
2022/06/14 13:36:04;;;;;;;0.75;0.68;;;36.70;23.90;;;;;;4996137;28;20038;-75
2022/06/14 13:38:40;;;;;;;2.33;0.73;;;36.80;24.50;;;;;;5032976;28;20041;-76
2022/06/14 13:41:12;;;;;;;2.63;0.65;;;36.90;24.00;;;;;;5036150;28;20053;-76
2022/06/14 13:43:46;;;;;;;1.63;0.77;;;37.00;24.20;;;;;;5021273;28;20074;-76
2022/06/14 13:46:24;;;;;;;2.45;0.90;;;37.10;24.20;;;;;;5020625;28;20021;-76
2022/06/14 13:49:15;;;;;;;2.85;1.00;;;37.10;24.10;;;;;;5034247;28;20038;-76
2022/06/14 13:52:12;;;;;;;2.30;0.70;;;37.10;23.20;;;;;;5009481;28;20045;-76
2022/06/14 13:54:39;;;;;;;6.10;0.90;;;37.10;23.20;;;;;;4994293;28;20034;-76
2022/06/14 13:57:23;;;;;;;5.35;1.02;;;37.10;23.80;;;;;;5037000;28;20034;-75
2022/06/14 13:59:50;;;;;;;2.20;0.80;;;37.00;23.10;;;;;;5035082;28;20553;-75
2022/06/14 14:02:35;;;;;;;2.10;0.70;;;37.10;23.60;;;;;;4986806;28;20041;-77
2022/06/14 14:05:18;;;;;;;1.60;0.90;;;37.10;23.10;;;;;;5035805;28;20039;-75